サイパン島 の空港の天気 - METARとTAF

サイパン国際空港 ( PGSN / SPN ) - 北マリアナ諸島 サイパン島
飛行場実況気象(Metar)
観測時間05/23 10:54 ChST (05/23 00:54 UTC)
風向・風速南南東 3m/s
視程10km以上
天気現象
全天の4割程度の雲 雲底高度 670m
気温30.6℃
湿度80%
気圧1013.4hPa
METARPGSN 230054Z 16006KT 10SM SCT022 31/27 A2986 RMK AO2 SLP134 T03060267
過去の天気等 Google飛行場航空写真 Wunderground天気予報

過去48時間のMETAR

飛行場予報(TAF)
発表時間: 5/23 09:23 ChST (5/22 23:23 UTC)
予報対象時間: 23日10時 ChST ~ 24日10時 ChST
風向・風速南東 4m/s
視程10km以上
天気現象周辺でしゅう雨
少しの雲 雲底高度 550m
全天の4割程度の雲 雲底高度 730m
PGSN 222323Z 2300/2324 14007KT P6SM VCSH FEW018 SCT024